Time;durP1;ratioP1;P1;durP2;ratioP2;P2;SDS_P1;SDS_P2;PMS_P1;PMS_P2;Temp;Humidity;BMP_temperature;BMP_pressure;BME280_temperature;BME280_humidity;BME280_pressure;Samples;Min_cycle;Max_cycle;Signal;HPM_P1;HPM_P2
2022/07/21 00:01:13;;;;;;;;;2.00;2.00;;;;;23.56;100.00;101519.56;5000974;28;45534;-67
2022/07/21 00:03:38;;;;;;;;;2.00;2.00;;;;;23.59;100.00;101527.41;4995000;28;45399;-66
2022/07/21 00:06:04;;;;;;;;;2.00;2.00;;;;;23.61;100.00;101513.97;5003812;28;46395;-67
2022/07/21 00:08:29;;;;;;;;;2.00;2.00;;;;;23.66;100.00;101522.38;5008015;28;45367;-73
2022/07/21 00:10:55;;;;;;;;;3.00;3.00;;;;;23.60;100.00;101520.69;4996127;28;45668;-71
2022/07/21 00:13:20;;;;;;;;;4.00;3.00;;;;;23.62;100.00;101524.03;4999013;28;45590;-69
2022/07/21 00:15:46;;;;;;;;;3.33;3.33;;;;;23.58;100.00;101512.56;4998061;28;46742;-75
2022/07/21 00:18:12;;;;;;;;;3.67;2.33;;;;;23.58;100.00;101511.75;4993976;28;45336;-68
2022/07/21 00:20:37;;;;;;;;;3.67;3.67;;;;;23.55;100.00;101515.94;4994345;28;45375;-69
2022/07/21 00:23:03;;;;;;;;;3.00;3.00;;;;;23.52;100.00;101524.88;4994399;28;45686;-69
2022/07/21 00:25:29;;;;;;;;;3.00;3.00;;;;;23.50;100.00;101527.09;5015742;28;46561;-73
2022/07/21 00:27:54;;;;;;;;;5.33;2.00;;;;;23.50;100.00;101523.47;5010703;28;45331;-73
2022/07/21 00:30:20;;;;;;;;;4.33;2.33;;;;;23.45;100.00;101522.34;5010802;28;45280;-72
2022/07/21 00:32:45;;;;;;;;;3.00;3.00;;;;;23.36;100.00;101503.56;5010061;28;45514;-74
2022/07/21 00:35:12;;;;;;;;;4.00;3.00;;;;;23.33;100.00;101509.72;5007677;28;46232;-75
2022/07/21 00:37:38;;;;;;;;;4.33;4.00;;;;;23.33;100.00;101520.94;5005566;28;45502;-76
2022/07/21 00:40:05;;;;;;;;;3.00;3.00;;;;;23.26;100.00;101516.44;5002329;28;45858;-73
2022/07/21 00:42:32;;;;;;;;;3.00;2.00;;;;;23.21;100.00;101518.38;5009750;28;45497;-75
2022/07/21 00:44:58;;;;;;;;;3.50;3.50;;;;;23.15;100.00;101514.72;5004909;28;45722;-69
2022/07/21 00:47:26;;;;;;;;;3.33;2.00;;;;;23.12;100.00;101520.03;5008212;28;45754;-69
2022/07/21 00:49:53;;;;;;;;;3.00;3.00;;;;;23.04;100.00;101527.81;4993683;28;45442;-68
2022/07/21 00:52:19;;;;;;;;;2.00;2.00;;;;;23.00;100.00;101523.84;4993406;28;45489;-74
2022/07/21 00:54:44;;;;;;;;;4.33;2.67;;;;;22.97;100.00;101517.97;5003820;28;46501;-73
2022/07/21 00:57:11;;;;;;;;;3.33;2.67;;;;;22.92;100.00;101519.63;5015305;28;45386;-75
2022/07/21 00:59:37;;;;;;;;;3.67;2.33;;;;;22.86;100.00;101517.06;4994877;28;45328;-74
2022/07/21 01:02:04;;;;;;;;;2.33;2.33;;;;;22.79;100.00;101516.50;5007567;28;45844;-73
2022/07/21 01:04:29;;;;;;;;;3.33;2.00;;;;;22.74;100.00;101520.97;5013893;28;46580;-74
2022/07/21 01:06:55;;;;;;;;;3.00;3.00;;;;;22.68;100.00;101519.25;5003911;28;45500;-75
2022/07/21 01:09:21;;;;;;;;;2.67;2.00;;;;;22.64;100.00;101526.50;4996955;28;45639;-74
2022/07/21 01:11:47;;;;;;;;;5.67;3.67;;;;;22.59;100.00;101520.88;4986468;28;45496;-75
2022/07/21 01:14:13;;;;;;;;;3.00;3.00;;;;;22.55;100.00;101520.56;5004739;28;45386;-76
2022/07/21 01:16:40;;;;;;;;;3.00;2.00;;;;;22.53;100.00;101519.16;4993735;28;45482;-72
2022/07/21 01:19:06;;;;;;;;;7.33;7.33;;;;;22.51;100.00;101525.00;4981119;28;45334;-72
2022/07/21 01:21:35;;;;;;;;;4.33;3.67;;;;;22.45;100.00;101522.47;4998041;28;45643;-73
2022/07/21 01:24:02;;;;;;;;;2.67;2.67;;;;;22.44;100.00;101530.03;4997387;28;45723;-73
2022/07/21 01:26:28;;;;;;;;;3.00;3.00;;;;;22.42;100.00;101528.59;5010515;28;45388;-73
2022/07/21 01:28:54;;;;;;;;;2.67;2.67;;;;;22.33;100.00;101514.28;4993181;28;45329;-73
2022/07/21 01:31:19;;;;;;;;;6.00;4.67;;;;;22.39;100.00;101529.97;4987277;28;45413;-67
2022/07/21 01:33:45;;;;;;;;;5.33;5.33;;;;;22.36;100.00;101520.16;4993705;28;45827;-67
2022/07/21 01:36:11;;;;;;;;;5.67;4.00;;;;;22.26;100.00;101496.88;5011825;28;45323;-67
2022/07/21 01:41:30;;;;;;;;;6.33;5.33;;;;;22.33;100.00;101512.31;4992423;28;45391;-67
2022/07/21 01:43:57;;;;;;;;;6.67;5.33;;;;;22.31;100.00;101510.91;4996109;28;46301;-74
2022/07/21 01:46:23;;;;;;;;;5.33;4.00;;;;;22.30;100.00;101514.78;5005750;28;45670;-74
2022/07/21 01:48:48;;;;;;;;;9.33;5.00;;;;;22.28;100.00;101517.84;5004531;28;45411;-68
2022/07/21 01:51:14;;;;;;;;;11.33;9.00;;;;;22.24;100.00;101513.06;5009213;28;45653;-67
2022/07/21 01:53:39;;;;;;;;;9.67;7.33;;;;;22.26;100.00;101520.09;4990342;28;47198;-67
2022/07/21 01:56:07;;;;;;;;;16.33;12.00;;;;;22.22;100.00;101524.53;4973130;28;45728;-68
2022/07/21 01:58:34;;;;;;;;;6.33;6.33;;;;;22.24;100.00;101527.88;4974145;28;45528;-69
2022/07/21 02:00:59;;;;;;;;;15.00;14.67;;;;;22.19;100.00;101528.69;5000183;28;45770;-67
2022/07/21 02:03:25;;;;;;;;;9.67;9.67;;;;;22.19;100.00;101533.44;4992266;28;46023;-67
2022/07/21 02:05:50;;;;;;;;;13.67;13.67;;;;;22.17;100.00;101544.03;4994205;28;45470;-67
2022/07/21 02:08:16;;;;;;;;;12.50;10.00;;;;;22.14;100.00;101539.84;5003951;28;45326;-74
2022/07/21 02:10:41;;;;;;;;;6.00;6.00;;;;;22.13;100.00;101537.31;5001141;28;45602;-73
2022/07/21 02:13:07;;;;;;;;;8.00;6.00;;;;;22.13;100.00;101540.09;4997596;28;46427;-74
2022/07/21 02:15:33;;;;;;;;;8.33;8.33;;;;;22.10;100.00;101546.22;4999985;28;45365;-74
2022/07/21 02:17:59;;;;;;;;;12.00;9.00;;;;;22.09;100.00;101541.75;5018096;28;45320;-74
2022/07/21 02:20:25;;;;;;;;;8.33;7.00;;;;;22.08;100.00;101546.50;5007476;28;45478;-68
2022/07/21 02:22:52;;;;;;;;;5.67;5.67;;;;;22.04;100.00;101540.59;5007399;28;45690;-74
2022/07/21 02:25:18;;;;;;;;;20.00;17.33;;;;;22.02;100.00;101544.75;5002405;28;45480;-74
2022/07/21 02:27:45;;;;;;;;;14.00;11.67;;;;;22.02;100.00;101547.53;5015757;28;45758;-75
2022/07/21 02:30:12;;;;;;;;;10.33;7.00;;;;;22.01;100.00;101543.91;5018887;28;45529;-75
2022/07/21 02:32:38;;;;;;;;;7.33;5.00;;;;;22.03;100.00;101544.47;5003823;28;46270;-67
2022/07/21 02:35:04;;;;;;;;;8.00;8.00;;;;;21.96;100.00;101541.09;5010267;28;45652;-74
2022/07/21 02:37:30;;;;;;;;;10.00;8.33;;;;;21.99;100.00;101551.72;5002505;28;45699;-74
2022/07/21 02:39:56;;;;;;;;;13.67;11.67;;;;;21.98;100.00;101555.63;4988424;28;45566;-74
2022/07/21 02:42:21;;;;;;;;;8.00;8.00;;;;;21.93;100.00;101554.72;5012780;28;45393;-73
2022/07/21 02:44:46;;;;;;;;;7.67;7.67;;;;;21.89;100.00;101554.44;4999815;28;45836;-74
2022/07/21 02:47:12;;;;;;;;;6.33;5.00;;;;;21.94;100.00;101556.41;5012576;28;46210;-75
2022/07/21 02:49:38;;;;;;;;;5.33;4.67;;;;;21.96;100.00;101556.97;4999422;28;45462;-74
2022/07/21 02:52:05;;;;;;;;;5.00;5.00;;;;;21.96;100.00;101560.63;5015273;28;45506;-74
2022/07/21 02:54:30;;;;;;;;;5.67;4.00;;;;;22.01;100.00;101552.28;5010615;28;45414;-74
2022/07/21 02:56:56;;;;;;;;;5.33;5.33;;;;;22.07;100.00;101561.56;4999306;28;45268;-75
2022/07/21 02:59:21;;;;;;;;;5.67;5.67;;;;;22.11;100.00;101564.66;5018471;28;45483;-75
2022/07/21 03:01:47;;;;;;;;;6.33;6.33;;;;;22.18;100.00;101565.28;5018437;28;45330;-75
2022/07/21 03:04:12;;;;;;;;;5.00;5.00;;;;;22.21;100.00;101559.97;5007652;28;45678;-74
2022/07/21 03:06:38;;;;;;;;;7.00;6.33;;;;;22.29;100.00;101569.00;5019791;28;45331;-73
2022/07/21 03:09:04;;;;;;;;;6.33;6.33;;;;;22.32;100.00;101565.69;5018935;28;45450;-75
2022/07/21 03:11:30;;;;;;;;;8.33;6.33;;;;;22.34;100.00;101569.06;5010363;28;45304;-75
2022/07/21 03:13:55;;;;;;;;;4.33;4.33;;;;;22.34;100.00;101560.69;5026335;28;45662;-73
2022/07/21 03:16:21;;;;;;;;;8.00;8.00;;;;;22.38;100.00;101562.69;5000809;28;45494;-73
2022/07/21 03:18:47;;;;;;;;;6.33;5.00;;;;;22.45;100.00;101569.97;4998473;28;45759;-72
2022/07/21 03:21:12;;;;;;;;;6.00;6.00;;;;;22.47;100.00;101565.81;4995614;28;46773;-72
2022/07/21 03:23:38;;;;;;;;;6.67;5.00;;;;;22.50;100.00;101561.63;5002113;28;45402;-73
2022/07/21 03:26:04;;;;;;;;;6.67;6.00;;;;;22.55;100.00;101572.84;5002180;28;45309;-74
2022/07/21 03:28:29;;;;;;;;;8.00;8.00;;;;;22.57;100.00;101567.81;5019346;28;46527;-73
2022/07/21 03:30:55;;;;;;;;;8.33;8.33;;;;;22.57;100.00;101576.22;5001432;28;45694;-67
2022/07/21 03:33:20;;;;;;;;;12.67;9.00;;;;;22.57;100.00;101576.22;5019031;28;45425;-66
2022/07/21 03:35:46;;;;;;;;;9.00;9.00;;;;;22.58;100.00;101577.91;5003727;28;45446;-67
2022/07/21 03:38:11;;;;;;;;;9.67;8.33;;;;;22.60;100.00;101577.63;5009571;28;45307;-68
2022/07/21 03:40:38;;;;;;;;;7.00;7.00;;;;;22.56;100.00;101571.75;5004635;28;45751;-74
2022/07/21 03:43:05;;;;;;;;;7.67;6.67;;;;;22.56;100.00;101574.56;5000724;28;45347;-72
2022/07/21 03:45:33;;;;;;;;;8.00;8.00;;;;;22.49;100.00;101574.75;5009504;28;45276;-71
2022/07/21 03:47:59;;;;;;;;;12.33;9.33;;;;;22.41;100.00;101574.41;5029705;28;45289;-74
2022/07/21 03:50:26;;;;;;;;;12.33;10.00;;;;;22.42;100.00;101579.75;5032151;28;48054;-74
2022/07/21 03:52:52;;;;;;;;;9.00;7.33;;;;;22.44;100.00;101582.25;5015405;28;45576;-74
2022/07/21 03:55:18;;;;;;;;;12.33;9.67;;;;;22.44;100.00;101585.94;5010612;28;45324;-72
2022/07/21 03:57:46;;;;;;;;;12.33;9.67;;;;;22.43;100.00;101578.63;5004921;28;45728;-73
2022/07/21 04:00:16;;;;;;;;;9.67;8.33;;;;;22.41;100.00;101582.81;5017346;28;46258;-73
2022/07/21 04:02:44;;;;;;;;;11.33;10.00;;;;;22.38;100.00;101579.44;5025850;28;45446;-76
2022/07/21 04:05:11;;;;;;;;;9.33;9.33;;;;;22.41;100.00;101588.41;5018902;28;45343;-76
2022/07/21 04:07:40;;;;;;;;;8.33;8.33;;;;;22.42;100.00;101584.50;5001002;28;45487;-73
2022/07/21 04:10:05;;;;;;;;;11.33;8.67;;;;;22.40;100.00;101587.56;5007153;28;46138;-72
2022/07/21 04:12:31;;;;;;;;;8.67;8.67;;;;;22.38;100.00;101596.22;5001812;28;44701;-74
2022/07/21 04:14:56;;;;;;;;;12.67;9.00;;;;;22.41;100.00;101596.78;5001803;28;45744;-75
2022/07/21 04:17:22;;;;;;;;;10.00;8.67;;;;;22.37;100.00;101590.91;5007092;28;45798;-72
2022/07/21 04:19:48;;;;;;;;;13.33;10.67;;;;;22.35;100.00;101591.16;4980192;28;46852;-73
2022/07/21 04:22:14;;;;;;;;;10.00;10.00;;;;;22.25;100.00;101577.06;5017525;28;45327;-74
2022/07/21 04:24:40;;;;;;;;;9.00;8.00;;;;;22.34;100.00;101595.06;4997040;28;45741;-73
2022/07/21 04:27:05;;;;;;;;;12.33;10.00;;;;;22.33;100.00;101598.97;5020567;28;45830;-73
2022/07/21 04:29:31;;;;;;;;;10.67;10.67;;;;;22.36;100.00;101603.19;5007237;28;46723;-73
2022/07/21 04:31:56;;;;;;;;;12.33;11.33;;;;;22.34;100.00;101600.66;5016112;28;45683;-74
2022/07/21 04:34:22;;;;;;;;;12.67;11.00;;;;;22.32;100.00;101599.22;5012819;28;45540;-73
2022/07/21 04:36:47;;;;;;;;;12.33;11.33;;;;;22.33;100.00;101610.13;5008390;28;45444;-74
2022/07/21 04:39:13;;;;;;;;;16.33;16.33;;;;;22.31;100.00;101603.97;5008780;28;45445;-74
2022/07/21 04:41:38;;;;;;;;;14.67;14.67;;;;;22.37;100.00;101611.28;5012629;28;45360;-75
2022/07/21 04:44:04;;;;;;;;;37.00;31.33;;;;;22.39;100.00;101608.22;5013772;28;45666;-73
2022/07/21 04:46:29;;;;;;;;;18.00;16.67;;;;;22.43;100.00;101598.22;5006265;28;45755;-75
2022/07/21 04:48:55;;;;;;;;;17.67;15.67;;;;;22.45;100.00;101606.31;5008293;28;46096;-72
2022/07/21 04:51:20;;;;;;;;;14.33;13.67;;;;;22.45;100.00;101604.34;5017010;28;45862;-75
2022/07/21 04:53:46;;;;;;;;;15.33;14.00;;;;;22.50;100.00;101603.56;5010214;28;45639;-73
2022/07/21 04:56:11;;;;;;;;;15.67;15.67;;;;;22.55;100.00;101601.63;5002802;28;45360;-76
2022/07/21 04:58:37;;;;;;;;;15.00;14.00;;;;;22.62;100.00;101603.34;4979439;28;46879;-74
2022/07/21 05:01:02;;;;;;;;;14.67;14.00;;;;;22.65;100.00;101605.63;4998247;28;45797;-73
2022/07/21 05:03:27;;;;;;;;;14.33;14.33;;;;;22.70;100.00;101606.50;4992279;28;44923;-72
2022/07/21 05:05:53;;;;;;;;;15.33;15.33;;;;;22.77;100.00;101608.22;5008345;28;46373;-73
2022/07/21 05:08:18;;;;;;;;;14.00;13.00;;;;;22.80;100.00;101608.53;5010325;28;46274;-73
2022/07/21 05:10:44;;;;;;;;;17.00;15.67;;;;;22.85;100.00;101613.31;4999204;28;45846;-74
2022/07/21 05:13:09;;;;;;;;;16.00;16.00;;;;;22.88;100.00;101610.81;4996703;28;45816;-74
2022/07/21 05:15:34;;;;;;;;;15.00;14.00;;;;;22.94;100.00;101611.69;5001468;28;45797;-72
2022/07/21 05:18:00;;;;;;;;;18.67;15.67;;;;;22.98;100.00;101612.81;5007047;28;45533;-73
2022/07/21 05:20:25;;;;;;;;;14.67;14.00;;;;;23.02;100.00;101613.09;4998534;28;45618;-73
2022/07/21 05:22:51;;;;;;;;;21.00;15.33;;;;;23.06;100.00;101605.88;5011510;28;45421;-73
2022/07/21 05:25:16;;;;;;;;;16.33;16.33;;;;;23.15;100.00;101621.03;4986331;28;45545;-74
2022/07/21 05:27:42;;;;;;;;;19.67;16.00;;;;;23.22;100.00;101610.44;4999091;28;46545;-74
2022/07/21 05:30:08;;;;;;;;;11.33;11.33;;;;;23.30;100.00;101617.47;4994334;28;45506;-74
2022/07/21 05:32:34;;;;;;;;;12.67;12.67;;;;;23.35;100.00;101609.09;4995525;28;45603;-74
2022/07/21 05:35:00;;;;;;;;;16.33;16.33;;;;;23.48;100.00;101607.75;5003385;28;45564;-73
2022/07/21 05:37:27;;;;;;;;;16.67;16.67;;;;;23.54;100.00;101608.59;5006650;28;45803;-74
2022/07/21 05:39:53;;;;;;;;;15.33;15.00;;;;;23.58;100.00;101596.56;5017003;28;45344;-74
2022/07/21 05:42:18;;;;;;;;;18.00;15.00;;;;;23.79;100.00;101608.66;4996301;28;45746;-73
2022/07/21 05:44:44;;;;;;;;;15.33;13.33;;;;;23.93;100.00;101614.59;5007864;28;45534;-74
2022/07/21 05:47:09;;;;;;;;;16.33;16.33;;;;;24.02;100.00;101614.06;4996562;28;46863;-73
2022/07/21 05:49:35;;;;;;;;;19.67;17.67;;;;;24.07;100.00;101620.50;5017033;28;45422;-72
2022/07/21 05:52:00;;;;;;;;;16.67;16.67;;;;;24.16;100.00;101620.78;5021648;28;45706;-72
2022/07/21 05:54:25;;;;;;;;;14.33;11.00;;;;;24.17;100.00;101622.47;4998573;28;45387;-72
2022/07/21 05:56:51;;;;;;;;;16.67;12.67;;;;;24.21;100.00;101622.78;5001277;28;46229;-74
2022/07/21 05:59:16;;;;;;;;;12.67;10.67;;;;;24.24;100.00;101614.63;5001176;28;45406;-73
2022/07/21 06:01:42;;;;;;;;;16.00;14.00;;;;;24.28;100.00;101614.91;5011651;28;45471;-72
2022/07/21 06:04:07;;;;;;;;;16.33;14.00;;;;;24.42;100.00;101621.63;5000759;28;45811;-71
2022/07/21 06:06:33;;;;;;;;;14.67;14.67;;;;;24.56;100.00;101626.66;5007968;28;45425;-75
2022/07/21 06:08:59;;;;;;;;;14.33;13.33;;;;;24.67;100.00;101620.78;5002952;28;45951;-75
2022/07/21 06:11:24;;;;;;;;;15.33;14.00;;;;;24.72;100.00;101613.50;5005187;28;45600;-75
2022/07/21 06:13:50;;;;;;;;;16.00;14.33;;;;;24.72;100.00;101624.72;5007308;28;45509;-74
2022/07/21 06:16:15;;;;;;;;;14.00;14.00;;;;;24.76;100.00;101623.00;5004716;28;45501;-74
2022/07/21 06:18:41;;;;;;;;;17.33;12.00;;;;;24.78;100.00;101623.59;5020557;28;45896;-77
2022/07/21 06:21:06;;;;;;;;;23.67;17.67;;;;;24.77;100.00;101622.72;5010312;28;45835;-74
2022/07/21 06:23:32;;;;;;;;;17.67;15.67;;;;;24.84;100.00;101623.28;5003677;28;45760;-76
2022/07/21 06:25:58;;;;;;;;;17.00;16.00;;;;;24.87;100.00;101615.44;5017038;28;46728;-74
2022/07/21 06:28:23;;;;;;;;;19.67;17.00;;;;;24.93;100.00;101625.53;5008526;28;45354;-74
2022/07/21 06:30:51;;;;;;;;;15.67;13.67;;;;;25.00;100.00;101631.66;5013292;28;46246;-77
2022/07/21 06:33:17;;;;;;;;;16.67;14.33;;;;;25.01;100.00;101630.53;4999145;28;47320;-73
2022/07/21 06:35:42;;;;;;;;;22.00;14.00;;;;;25.04;100.00;101638.38;5010786;28;45468;-74
2022/07/21 06:38:08;;;;;;;;;18.67;16.00;;;;;25.03;100.00;101636.72;5011821;28;45909;-74
2022/07/21 06:40:34;;;;;;;;;18.33;14.67;;;;;25.02;100.00;101640.66;5014187;28;45913;-73
2022/07/21 06:42:59;;;;;;;;;19.00;15.33;;;;;25.01;100.00;101633.34;5006753;28;45688;-73
2022/07/21 06:45:24;;;;;;;;;20.33;19.33;;;;;25.07;100.00;101634.16;5005713;28;46159;-73
2022/07/21 06:47:50;;;;;;;;;15.33;14.33;;;;;25.13;100.00;101628.25;4985843;28;45872;-73
2022/07/21 06:50:16;;;;;;;;;18.67;16.33;;;;;25.23;100.00;101626.56;5012014;28;45483;-75
2022/07/21 06:52:41;;;;;;;;;17.33;15.00;;;;;25.30;100.00;101630.75;5004797;28;45510;-73
2022/07/21 06:55:08;;;;;;;;;15.33;14.00;;;;;25.42;100.00;101621.13;5004038;28;45806;-73
2022/07/21 06:57:35;;;;;;;;;18.33;17.33;;;;;25.64;100.00;101626.38;4987486;28;46012;-73
2022/07/21 07:00:03;;;;;;;;;17.50;15.00;;;;;25.80;100.00;101619.53;5015419;28;45471;-75
2022/07/21 07:02:29;;;;;;;;;16.67;14.33;;;;;26.03;100.00;101623.63;5007223;28;45578;-74
2022/07/21 07:04:55;;;;;;;;;16.67;15.00;;;;;26.14;100.00;101621.59;5008679;28;46282;-74
2022/07/21 07:07:20;;;;;;;;;17.33;15.33;;;;;26.24;100.00;101626.25;5007794;28;45980;-74
2022/07/21 07:09:46;;;;;;;;;13.33;13.00;;;;;26.31;100.00;101626.78;5007556;28;45665;-75
2022/07/21 07:12:11;;;;;;;;;13.33;12.33;;;;;26.33;100.00;101634.91;5011814;28;46004;-75
2022/07/21 07:14:37;;;;;;;;;17.33;17.33;;;;;26.41;100.00;101628.69;5009988;28;45484;-74
2022/07/21 07:17:03;;;;;;;;;19.33;19.00;;;;;26.38;100.00;101644.16;5020697;28;45417;-74
2022/07/21 07:19:29;;;;;;;;;15.00;15.00;;;;;26.43;100.00;101646.09;5007979;28;45454;-72
2022/07/21 07:21:55;;;;;;;;;12.33;11.00;;;;;26.43;100.00;101646.09;4998450;28;45702;-74
2022/07/21 07:24:21;;;;;;;;;17.00;14.33;;;;;26.48;100.00;101643.22;4979902;28;48180;-73
2022/07/21 07:26:47;;;;;;;;;12.67;12.67;;;;;26.53;100.00;101650.78;5008544;28;46069;-73
2022/07/21 07:29:13;;;;;;;;;17.00;14.33;;;;;26.52;100.00;101641.50;5016492;28;45446;-73
2022/07/21 07:31:39;;;;;;;;;20.33;19.33;;;;;26.66;100.00;101641.63;5007602;28;46256;-73
2022/07/21 07:34:05;;;;;;;;;16.33;15.33;;;;;26.76;100.00;101643.56;4996436;28;45681;-72
2022/07/21 07:36:31;;;;;;;;;13.67;12.33;;;;;26.88;100.00;101635.53;5002585;28;44828;-74
2022/07/21 07:38:56;;;;;;;;;16.33;16.00;;;;;27.03;100.00;101648.59;5007395;28;45389;-75
2022/07/21 07:41:24;;;;;;;;;19.00;15.67;;;;;27.29;100.00;101639.84;5003220;28;45664;-73
2022/07/21 07:43:51;;;;;;;;;17.33;16.33;;;;;27.98;100.00;101640.38;5011739;28;45397;-75
2022/07/21 07:46:18;;;;;;;;;18.00;17.67;;;;;28.39;100.00;101644.53;5001834;28;45429;-74
2022/07/21 07:48:43;;;;;;;;;19.33;13.67;;;;;28.80;100.00;101648.63;5012278;28;45576;-76
2022/07/21 07:51:10;;;;;;;;;25.67;19.67;;;;;29.11;100.00;101645.22;4986899;28;46168;-75
2022/07/21 07:53:36;;;;;;;;;19.33;16.33;;;;;29.34;100.00;101641.38;5001383;28;45477;-75
2022/07/21 07:56:01;;;;;;;;;16.33;16.33;;;;;29.64;100.00;101643.84;4998539;28;45871;-75
2022/07/21 07:58:27;;;;;;;;;19.33;17.67;;;;;29.90;100.00;101635.63;5025634;28;45644;-74
2022/07/21 08:00:53;;;;;;;;;23.00;15.67;;;;;30.20;100.00;101638.88;5016050;28;45517;-74
2022/07/21 08:03:20;;;;;;;;;13.67;13.67;;;;;30.44;100.00;101638.59;5014636;28;46087;-76
2022/07/21 08:05:46;;;;;;;;;26.67;22.00;;;;;30.49;100.00;101643.28;4998945;28;45613;-76
2022/07/21 08:08:13;;;;;;;;;32.33;27.67;;;;;30.39;100.00;101653.69;5010388;28;45858;-74
2022/07/21 08:10:39;;;;;;;;;21.33;20.33;;;;;30.18;100.00;101649.66;4996366;28;45265;-74
2022/07/21 08:13:04;;;;;;;;;29.33;24.33;;;;;29.94;100.00;101642.31;5011998;28;45560;-76
2022/07/21 08:15:30;;;;;;;;;21.67;20.33;;;;;29.95;100.00;101649.66;4998567;28;45890;-74
2022/07/21 08:17:55;;;;;;;;;22.33;19.67;;;;;29.94;100.00;101647.97;5026169;28;45430;-72
2022/07/21 08:20:21;;;;;;;;;16.67;16.67;;;;;29.95;100.00;101654.47;4996564;28;45574;-74
2022/07/21 08:22:46;;;;;;;;;22.00;20.00;;;;;30.03;100.00;101648.91;4986971;28;45927;-75
2022/07/21 08:25:12;;;;;;;;;18.67;16.00;;;;;30.13;100.00;101656.28;5002598;28;45486;-75
2022/07/21 08:27:39;;;;;;;;;18.67;15.33;;;;;30.21;100.00;101652.72;4996946;28;45780;-74
2022/07/21 08:30:05;;;;;;;;;20.67;19.00;;;;;30.43;100.00;101660.38;4996886;28;45637;-72
2022/07/21 08:32:31;;;;;;;;;20.00;18.00;;;;;30.69;100.00;101656.91;4999614;28;46967;-75
2022/07/21 08:34:56;;;;;;;;;19.33;16.67;;;;;30.95;100.00;101654.19;5001274;28;45403;-73
2022/07/21 08:37:21;;;;;;;;;20.33;19.33;;;;;31.37;100.00;101659.56;5002570;28;45368;-73
2022/07/21 08:39:47;;;;;;;;;22.67;21.33;;;;;31.92;98.58;101654.50;5002862;28;45791;-74
2022/07/21 08:42:23;;;;;;;;;19.67;17.00;;;;;32.34;92.62;101660.53;5024704;28;45762;-75
2022/07/21 08:44:49;;;;;;;;;20.67;18.67;;;;;33.00;89.78;101656.56;5017071;28;45717;-75
2022/07/21 08:47:14;;;;;;;;;22.67;18.33;;;;;33.82;83.74;101656.31;4993305;28;45517;-74
2022/07/21 08:49:40;;;;;;;;;24.00;24.00;;;;;34.29;76.15;101656.09;4985637;28;45528;-73
2022/07/21 08:52:07;;;;;;;;;21.50;21.00;;;;;35.33;71.09;101658.13;4999432;28;46925;-74
2022/07/21 08:54:33;;;;;;;;;20.00;15.33;;;;;35.93;63.90;101651.88;4983602;28;45951;-74
2022/07/21 08:56:58;;;;;;;;;16.67;16.67;;;;;36.22;60.33;101647.88;5003504;28;45382;-75
2022/07/21 08:59:23;;;;;;;;;19.67;19.67;;;;;35.80;59.78;101651.09;5006742;28;45832;-75
2022/07/21 09:01:49;;;;;;;;;15.67;12.33;;;;;35.27;60.85;101654.72;4995330;28;46851;-73
2022/07/21 09:04:32;;;;;;;;;19.33;16.33;;;;;34.61;63.35;101653.63;5001487;28;45871;-74
2022/07/21 09:07:04;;;;;;;;;19.00;18.67;;;;;34.41;63.40;101661.00;5007464;28;45718;-72
2022/07/21 09:09:32;;;;;;;;;20.00;20.00;;;;;34.96;61.07;101656.06;5019590;22;47345;-80
2022/07/21 09:11:58;;;;;;;;;20.00;19.67;;;;;35.16;58.88;101637.19;4970438;28;46135;-79
2022/07/21 09:14:28;;;;;;;;;17.00;16.67;;;;;34.98;58.37;101638.63;4970348;28;45396;-79
2022/07/21 09:17:00;;;;;;;;;17.00;16.67;;;;;34.59;60.16;101658.81;4962718;28;44908;-79
2022/07/21 09:19:35;;;;;;;;;17.00;15.33;;;;;34.08;62.18;101664.63;4961090;28;45610;-85
2022/07/21 09:22:04;;;;;;;;;18.67;15.33;;;;;33.61;63.82;101651.41;4960761;28;47793;-82
2022/07/21 09:24:37;;;;;;;;;16.33;16.00;;;;;33.47;65.74;101653.66;4969807;28;45555;-84
2022/07/21 09:27:06;;;;;;;;;14.00;12.33;;;;;33.83;65.40;101660.81;4955910;28;45434;-82
2022/07/21 09:29:51;;;;;;;;;19.00;15.00;;;;;34.09;63.71;101659.78;4966441;28;44926;-85
2022/07/21 09:32:16;;;;;;;;;16.33;14.67;;;;;34.54;62.53;101655.34;4956594;28;46757;-82
2022/07/21 09:34:43;;;;;;;;;17.00;17.00;;;;;34.45;61.13;101642.03;4996725;28;44774;-82
2022/07/21 09:37:09;;;;;;;;;10.33;10.00;;;;;34.46;60.81;101659.97;4966415;28;45326;-80
2022/07/21 09:40:08;;;;;;;;;15.00;12.67;;;;;33.91;63.44;101662.78;4970288;28;45382;-81
2022/07/21 09:42:38;;;;;;;;;17.33;15.33;;;;;33.35;65.85;101667.78;4945522;28;46222;-83
2022/07/21 09:45:10;;;;;;;;;14.67;13.00;;;;;32.93;68.61;101639.22;4955495;28;45100;-84
2022/07/21 09:47:38;;;;;;;;;13.67;13.00;;;;;33.02;68.66;101669.25;4966912;28;45417;-82
2022/07/21 09:50:05;;;;;;;;;16.67;15.67;;;;;33.23;68.19;101669.34;4979597;28;44834;-82
2022/07/21 09:52:36;;;;;;;;;14.33;13.67;;;;;33.13;67.46;101648.97;4971445;28;46343;-82
2022/07/21 09:55:07;;;;;;;;;15.00;15.00;;;;;33.99;64.16;101668.75;4952072;28;45392;-81
2022/07/21 09:57:33;;;;;;;;;14.67;13.33;;;;;34.27;61.46;101644.25;4962751;28;45553;-82
2022/07/21 10:00:00;;;;;;;;;16.00;15.33;;;;;35.26;57.74;101653.00;4952098;28;45455;-82
2022/07/21 10:02:31;;;;;;;;;16.00;10.67;;;;;34.93;56.76;101656.78;4956706;28;47673;-81
2022/07/21 10:05:04;;;;;;;;;22.00;19.33;;;;;34.94;57.23;101631.94;4975088;28;44860;-82
2022/07/21 10:07:31;;;;;;;;;13.33;13.00;;;;;35.55;55.26;101653.97;4983163;28;44871;-82
2022/07/21 10:09:58;;;;;;;;;16.00;15.67;;;;;35.46;54.54;101631.25;4972556;28;46172;-83
2022/07/21 10:12:25;;;;;;;;;13.67;12.00;;;;;36.25;51.80;101655.69;4952500;28;46834;-84
2022/07/21 10:14:51;;;;;;;;;13.67;13.67;;;;;35.78;51.81;101622.91;4972799;28;45706;-81
2022/07/21 10:17:18;;;;;;;;;15.67;14.67;;;;;36.63;50.25;101644.94;4960573;28;44757;-81
2022/07/21 10:20:08;;;;;;;;;15.00;15.00;;;;;36.96;49.15;101613.16;4971314;28;45173;-81
2022/07/21 10:22:55;;;;;;;;;17.00;14.33;;;;;37.36;48.18;101648.50;4963326;28;45446;-79
2022/07/21 10:25:22;;;;;;;;;13.00;11.67;;;;;38.14;45.38;101660.91;4967710;28;45461;-80
2022/07/21 10:28:17;;;;;;;;;12.00;12.00;;;;;39.62;42.10;101655.03;4968433;28;45306;-80
2022/07/21 10:30:48;;;;;;;;;14.00;14.00;;;;;41.13;38.31;101653.09;4967975;28;45104;-82
2022/07/21 10:33:16;;;;;;;;;13.00;11.67;;;;;42.54;35.59;101660.47;4970686;28;46313;-80
2022/07/21 10:35:49;;;;;;;;;15.33;14.33;;;;;43.20;33.54;101636.22;4978198;28;45260;-85
2022/07/21 10:38:32;;;;;;;;;14.33;12.67;;;;;41.92;34.89;101650.78;4975755;28;44835;-82
2022/07/21 10:40:59;;;;;;;;;14.00;12.67;;;;;41.58;34.80;101650.97;4973015;28;45036;-82
2022/07/21 10:43:25;;;;;;;;;16.33;15.00;;;;;41.34;34.64;101663.16;4979697;28;46521;-83
2022/07/21 10:46:43;;;;;;;;;19.33;16.33;;;;;40.44;36.98;101651.59;4978475;28;45260;-84
2022/07/21 10:49:42;;;;;;;;;15.67;12.67;;;;;41.03;35.87;101651.78;4972082;28;44859;-82
2022/07/21 10:52:53;;;;;;;;;;;;;;;;;;;;;
2022/07/21 10:55:37;;;;;;;;;12.67;12.67;;;;;41.44;34.46;101651.72;4964481;28;75858;-86
2022/07/21 10:59:04;;;;;;;;;12.67;12.33;;;;;41.69;36.50;101650.22;4973264;28;46088;-82
2022/07/21 11:01:29;;;;;;;;;15.00;12.33;;;;;40.28;37.52;101605.00;4941127;28;46548;-83
2022/07/21 11:04:23;;;;;;;;;13.33;13.33;;;;;39.47;38.57;101612.94;4988913;28;47043;-84
2022/07/21 11:06:59;;;;;;;;;14.00;13.00;;;;;39.16;39.00;101638.69;4958403;28;45433;-83
2022/07/21 11:10:25;;;;;;;;;;;;;;;;;;;;;
2022/07/21 11:13:04;;;;;;;;;16.33;12.67;;;;;40.68;35.58;101640.75;4860465;29;45563;-84
2022/07/21 11:16:09;;;;;;;;;13.00;12.67;;;;;41.41;34.86;101654.56;4914753;29;46276;-89
2022/07/21 11:18:45;;;;;;;;;16.33;13.33;;;;;39.64;36.06;101649.72;4898659;29;46947;-84